createdAt,value
2017-10-26T00:00:50.970Z,1015.59
2017-10-26T00:01:43.378Z,1015.65
2017-10-26T00:02:36.102Z,1015.6
2017-10-26T00:03:29.242Z,1015.62
2017-10-26T00:04:21.220Z,1015.63
2017-10-26T00:05:14.408Z,1015.64
2017-10-26T00:06:06.728Z,1015.62
2017-10-26T00:06:58.885Z,1015.59
2017-10-26T00:07:51.046Z,1015.61
2017-10-26T00:08:44.006Z,1015.6
2017-10-26T00:09:35.937Z,1015.61
2017-10-26T00:10:28.202Z,1015.57
2017-10-26T00:11:20.356Z,1015.6
2017-10-26T00:12:12.903Z,1015.59
2017-10-26T00:13:05.126Z,1015.58
2017-10-26T00:13:57.350Z,1015.56
2017-10-26T00:14:49.590Z,1015.6
2017-10-26T00:15:42.780Z,1015.56
2017-10-26T00:16:35.322Z,1015.58
2017-10-26T00:17:27.853Z,1015.55
2017-10-26T00:18:20.032Z,1015.54
2017-10-26T00:19:12.319Z,1015.57
2017-10-26T00:20:04.944Z,1015.56
2017-10-26T00:20:57.860Z,1015.57
2017-10-26T00:21:50.320Z,1015.54
2017-10-26T00:22:42.238Z,1015.56
2017-10-26T00:23:33.999Z,1015.55
2017-10-26T00:24:26.473Z,1015.57
2017-10-26T00:25:18.975Z,1015.55
2017-10-26T00:26:12.552Z,1015.54
2017-10-26T00:27:04.362Z,1015.57
2017-10-26T00:27:45.895Z,1015.6
2017-10-26T00:28:26.247Z,1015.58
2017-10-26T00:29:06.621Z,1015.6
2017-10-26T00:29:47.081Z,1015.55
2017-10-26T00:30:27.459Z,1015.57
2017-10-26T00:31:07.842Z,1015.57
2017-10-26T00:31:48.285Z,1015.58
2017-10-26T00:32:28.778Z,1015.58
2017-10-26T00:33:09.174Z,1015.58
2017-10-26T00:33:49.632Z,1015.59
2017-10-26T00:34:29.995Z,1015.57
2017-10-26T00:35:10.459Z,1015.53
2017-10-26T00:35:50.844Z,1015.58
2017-10-26T00:36:31.368Z,1015.57
2017-10-26T00:37:11.950Z,1015.61
2017-10-26T00:37:52.368Z,1015.58
2017-10-26T00:38:32.785Z,1015.61
2017-10-26T00:39:13.205Z,1015.62
2017-10-26T00:39:53.842Z,1015.6
2017-10-26T00:40:34.192Z,1015.67
2017-10-26T00:41:14.744Z,1015.63
2017-10-26T00:41:55.044Z,1015.64
2017-10-26T00:42:35.648Z,1015.66
2017-10-26T00:43:16.032Z,1015.66
2017-10-26T00:43:56.387Z,1015.64
2017-10-26T00:44:36.797Z,1015.64
2017-10-26T00:45:17.281Z,1015.61
2017-10-26T00:45:57.729Z,1015.66
2017-10-26T00:46:38.144Z,1015.66
2017-10-26T00:47:18.603Z,1015.63
2017-10-26T00:47:58.979Z,1015.62
2017-10-26T00:48:39.420Z,1015.65
2017-10-26T00:49:19.782Z,1015.66
2017-10-26T00:50:00.102Z,1015.68
2017-10-26T00:50:40.537Z,1015.65
2017-10-26T00:51:21.033Z,1015.7
2017-10-26T00:52:01.420Z,1015.65
2017-10-26T00:52:41.810Z,1015.7
2017-10-26T00:53:22.301Z,1015.63
2017-10-26T00:54:02.890Z,1015.64
2017-10-26T00:54:43.249Z,1015.66
2017-10-26T00:55:23.685Z,1015.63
2017-10-26T00:56:04.026Z,1015.64
2017-10-26T00:56:44.467Z,1015.64
2017-10-26T00:57:24.919Z,1015.61
2017-10-26T00:58:05.339Z,1015.62
2017-10-26T00:58:45.863Z,1015.63
2017-10-26T00:59:26.378Z,1015.64
2017-10-26T01:00:06.890Z,1015.67
2017-10-26T01:00:47.288Z,1015.66
2017-10-26T01:01:27.758Z,1015.7
2017-10-26T01:02:08.086Z,1015.71
2017-10-26T01:02:48.572Z,1015.68
2017-10-26T01:03:28.939Z,1015.72
2017-10-26T01:04:09.301Z,1015.7
2017-10-26T01:04:49.881Z,1015.74
2017-10-26T01:05:30.409Z,1015.72
2017-10-26T01:06:10.812Z,1015.7
2017-10-26T01:06:51.192Z,1015.7
2017-10-26T01:07:31.655Z,1015.73
2017-10-26T01:08:12.125Z,1015.76
2017-10-26T01:08:52.531Z,1015.75
2017-10-26T01:09:32.914Z,1015.79
2017-10-26T01:10:13.372Z,1015.77
2017-10-26T01:10:53.797Z,1015.79
2017-10-26T01:11:34.105Z,1015.75
2017-10-26T01:12:14.483Z,1015.77
2017-10-26T01:12:54.943Z,1015.81
2017-10-26T01:13:35.347Z,1015.74
2017-10-26T01:14:15.797Z,1015.78
2017-10-26T01:14:56.195Z,1015.8
2017-10-26T01:15:36.613Z,1015.76
2017-10-26T01:16:16.995Z,1015.8
2017-10-26T01:16:57.381Z,1015.8
2017-10-26T01:17:37.729Z,1015.85
2017-10-26T01:18:18.120Z,1015.83
2017-10-26T01:18:58.581Z,1015.87
2017-10-26T01:19:39.106Z,1015.87
2017-10-26T01:20:19.534Z,1015.86
2017-10-26T01:21:00.027Z,1015.81
2017-10-26T01:21:40.452Z,1015.85
2017-10-26T01:22:20.828Z,1015.82
2017-10-26T01:23:01.308Z,1015.84
2017-10-26T01:23:41.668Z,1015.84
2017-10-26T01:24:22.067Z,1015.85
2017-10-26T01:25:02.442Z,1015.74
2017-10-26T01:25:42.838Z,1015.8
2017-10-26T01:26:23.285Z,1015.82
2017-10-26T01:27:03.755Z,1015.76
2017-10-26T01:27:44.287Z,1015.77
2017-10-26T01:28:24.701Z,1015.74
2017-10-26T01:29:05.127Z,1015.75
2017-10-26T01:29:45.632Z,1015.75
2017-10-26T01:30:25.997Z,1015.72
2017-10-26T01:31:06.501Z,1015.72
2017-10-26T01:31:46.937Z,1015.71
2017-10-26T01:32:27.312Z,1015.78
2017-10-26T01:33:07.720Z,1015.71
2017-10-26T01:33:48.070Z,1015.68
2017-10-26T01:34:28.474Z,1015.71
2017-10-26T01:35:08.912Z,1015.73
2017-10-26T01:35:49.339Z,1015.74
2017-10-26T01:36:29.619Z,1015.74
2017-10-26T01:37:10.066Z,1015.71
2017-10-26T01:37:50.578Z,1015.73
2017-10-26T01:38:31.012Z,1015.72
2017-10-26T01:39:11.414Z,1015.72
2017-10-26T01:39:51.852Z,1015.71
2017-10-26T01:40:32.292Z,1015.73
2017-10-26T01:41:12.704Z,1015.67
2017-10-26T01:41:53.149Z,1015.68
2017-10-26T01:42:33.519Z,1015.67
2017-10-26T01:43:13.973Z,1015.7
2017-10-26T01:43:54.452Z,1015.66
2017-10-26T01:44:34.880Z,1015.64
2017-10-26T01:45:15.285Z,1015.67
2017-10-26T01:45:55.746Z,1015.68
2017-10-26T01:46:36.042Z,1015.63
2017-10-26T01:47:16.469Z,1015.65
2017-10-26T01:47:56.885Z,1015.64
2017-10-26T01:48:37.244Z,1015.68
2017-10-26T01:49:17.837Z,1015.62
2017-10-26T01:49:58.376Z,1015.64
2017-10-26T01:50:38.777Z,1015.59
2017-10-26T01:51:19.245Z,1015.6
2017-10-26T01:51:59.622Z,1015.63
2017-10-26T01:52:39.962Z,1015.64
2017-10-26T01:53:20.410Z,1015.67
2017-10-26T01:54:00.900Z,1015.64
2017-10-26T01:54:41.327Z,1015.63
2017-10-26T01:55:21.757Z,1015.57
2017-10-26T01:56:02.104Z,1015.63
2017-10-26T01:56:42.524Z,1015.61
2017-10-26T01:57:22.887Z,1015.61
2017-10-26T01:58:03.284Z,1015.63
2017-10-26T01:58:43.705Z,1015.58
2017-10-26T01:59:24.099Z,1015.63
2017-10-26T02:00:04.477Z,1015.67
2017-10-26T02:00:44.843Z,1015.65
2017-10-26T02:01:25.260Z,1015.64
2017-10-26T02:02:05.793Z,1015.65
2017-10-26T02:02:46.219Z,1015.65
2017-10-26T02:03:26.580Z,1015.66
2017-10-26T02:04:07.053Z,1015.68
2017-10-26T02:04:47.504Z,1015.66
2017-10-26T02:05:27.917Z,1015.68
2017-10-26T02:06:08.428Z,1015.66
2017-10-26T02:06:48.733Z,1015.7
2017-10-26T02:07:29.179Z,1015.66
2017-10-26T02:08:09.560Z,1015.63
2017-10-26T02:08:49.957Z,1015.63
2017-10-26T02:09:30.467Z,1015.6
2017-10-26T02:10:10.917Z,1015.58
2017-10-26T02:10:51.324Z,1015.64
2017-10-26T02:11:31.713Z,1015.61
2017-10-26T02:12:12.116Z,1015.6
2017-10-26T02:12:52.525Z,1015.61
2017-10-26T02:13:33.016Z,1015.61
2017-10-26T02:14:13.409Z,1015.6
2017-10-26T02:14:53.828Z,1015.59
2017-10-26T02:15:34.209Z,1015.58
2017-10-26T02:16:14.658Z,1015.58
2017-10-26T02:16:55.059Z,1015.57
2017-10-26T02:17:35.515Z,1015.56
2017-10-26T02:18:15.928Z,1015.53
2017-10-26T02:18:56.276Z,1015.49
2017-10-26T02:19:36.814Z,1015.49
2017-10-26T02:20:17.285Z,1015.47
2017-10-26T02:20:57.744Z,1015.52
2017-10-26T02:21:38.094Z,1015.48
2017-10-26T02:22:18.655Z,1015.46
2017-10-26T02:22:59.073Z,1015.45
2017-10-26T02:23:39.551Z,1015.46
2017-10-26T02:24:20.117Z,1015.49
2017-10-26T02:25:00.436Z,1015.45
2017-10-26T02:25:40.876Z,1015.47
2017-10-26T02:26:21.406Z,1015.49
2017-10-26T02:27:01.913Z,1015.46
2017-10-26T02:27:42.357Z,1015.46
2017-10-26T02:28:22.794Z,1015.48
2017-10-26T02:29:03.385Z,1015.49
2017-10-26T02:29:43.810Z,1015.5
2017-10-26T02:30:24.196Z,1015.47
2017-10-26T02:31:04.641Z,1015.45
2017-10-26T02:31:45.082Z,1015.41
2017-10-26T02:32:25.458Z,1015.39
2017-10-26T02:33:05.917Z,1015.38
2017-10-26T02:33:46.344Z,1015.41
2017-10-26T02:34:26.711Z,1015.41
2017-10-26T02:35:07.136Z,1015.41
2017-10-26T02:35:47.576Z,1015.44
2017-10-26T02:36:28.008Z,1015.42
2017-10-26T02:37:08.486Z,1015.45
2017-10-26T02:37:48.856Z,1015.38
2017-10-26T02:38:29.254Z,1015.41
2017-10-26T02:39:09.670Z,1015.39
2017-10-26T02:39:50.070Z,1015.42
2017-10-26T02:40:30.517Z,1015.43
2017-10-26T02:41:10.932Z,1015.42
2017-10-26T02:41:51.388Z,1015.37
2017-10-26T02:42:31.642Z,1015.42
2017-10-26T02:43:12.125Z,1015.4
2017-10-26T02:43:52.552Z,1015.39
2017-10-26T02:44:33.246Z,1015.42
2017-10-26T02:45:13.533Z,1015.43
2017-10-26T02:45:53.854Z,1015.41
2017-10-26T02:46:34.285Z,1015.42
2017-10-26T02:47:14.717Z,1015.42
2017-10-26T02:47:55.066Z,1015.45
2017-10-26T02:48:35.446Z,1015.48
2017-10-26T02:49:15.888Z,1015.47
2017-10-26T02:49:56.288Z,1015.47
2017-10-26T02:50:36.711Z,1015.51
2017-10-26T02:51:17.199Z,1015.47
2017-10-26T02:51:57.575Z,1015.49
2017-10-26T02:52:37.929Z,1015.44
2017-10-26T02:53:18.576Z,1015.45
2017-10-26T02:53:58.980Z,1015.45
2017-10-26T02:54:39.458Z,1015.44
2017-10-26T02:55:19.879Z,1015.43
2017-10-26T02:56:00.417Z,1015.46
2017-10-26T02:56:40.975Z,1015.42
2017-10-26T02:57:21.388Z,1015.45
2017-10-26T02:58:01.801Z,1015.44
2017-10-26T02:58:42.255Z,1015.45
2017-10-26T02:59:22.673Z,1015.49
2017-10-26T03:00:03.132Z,1015.44
2017-10-26T03:00:43.546Z,1015.45
2017-10-26T03:01:23.934Z,1015.43
2017-10-26T03:02:04.462Z,1015.51
2017-10-26T03:02:45.047Z,1015.46
2017-10-26T03:03:25.600Z,1015.5
2017-10-26T03:04:06.082Z,1015.5
2017-10-26T03:04:46.606Z,1015.49
2017-10-26T03:05:26.954Z,1015.48
2017-10-26T03:06:07.370Z,1015.49
2017-10-26T03:06:47.993Z,1015.49
2017-10-26T03:07:28.325Z,1015.46
2017-10-26T03:08:08.717Z,1015.46
2017-10-26T03:08:49.138Z,1015.44
2017-10-26T03:09:29.565Z,1015.47
2017-10-26T03:10:10.041Z,1015.42
2017-10-26T03:10:50.472Z,1015.44
2017-10-26T03:11:30.916Z,1015.45
2017-10-26T03:12:11.282Z,1015.47
2017-10-26T03:12:51.643Z,1015.49
2017-10-26T03:13:32.047Z,1015.53
2017-10-26T03:14:12.596Z,1015.55
2017-10-26T03:14:53.016Z,1015.56
2017-10-26T03:15:33.346Z,1015.54
2017-10-26T03:16:13.905Z,1015.56
2017-10-26T03:16:54.378Z,1015.55
2017-10-26T03:17:34.809Z,1015.55
2017-10-26T03:18:15.492Z,1015.52
2017-10-26T03:18:55.909Z,1015.49
2017-10-26T03:19:36.468Z,1015.56
2017-10-26T03:20:16.853Z,1015.57
2017-10-26T03:20:57.348Z,1015.54
2017-10-26T03:21:37.770Z,1015.61
2017-10-26T03:22:18.192Z,1015.52
2017-10-26T03:22:58.573Z,1015.63
2017-10-26T03:23:38.994Z,1015.55
2017-10-26T03:24:19.560Z,1015.59
2017-10-26T03:24:59.911Z,1015.58
2017-10-26T03:25:40.455Z,1015.61
2017-10-26T03:26:20.923Z,1015.59
2017-10-26T03:27:01.461Z,1015.59
2017-10-26T03:27:41.898Z,1015.59
2017-10-26T03:28:22.386Z,1015.55
2017-10-26T03:29:02.835Z,1015.54
2017-10-26T03:29:43.241Z,1015.54
2017-10-26T03:30:23.718Z,1015.56
2017-10-26T03:31:04.393Z,1015.57
2017-10-26T03:31:44.809Z,1015.56
2017-10-26T03:32:25.208Z,1015.55
2017-10-26T03:33:05.765Z,1015.57
2017-10-26T03:33:46.093Z,1015.57
2017-10-26T03:34:26.563Z,1015.59
2017-10-26T03:35:07.114Z,1015.6
2017-10-26T03:35:47.488Z,1015.6
2017-10-26T03:36:27.915Z,1015.6
2017-10-26T03:37:08.498Z,1015.62
2017-10-26T03:37:48.848Z,1015.63
2017-10-26T03:38:29.353Z,1015.61
2017-10-26T03:39:09.782Z,1015.58
2017-10-26T03:39:50.225Z,1015.49
2017-10-26T03:40:30.709Z,1015.54
2017-10-26T03:41:11.046Z,1015.51
2017-10-26T03:41:51.794Z,1015.48
2017-10-26T03:42:32.328Z,1015.48
2017-10-26T03:43:12.805Z,1015.42
2017-10-26T03:43:53.085Z,1015.45
2017-10-26T03:44:33.469Z,1015.43
2017-10-26T03:45:13.997Z,1015.46
2017-10-26T03:45:54.526Z,1015.48
2017-10-26T03:46:34.956Z,1015.47
2017-10-26T03:47:15.501Z,1015.48
2017-10-26T03:47:55.925Z,1015.48
2017-10-26T03:48:36.320Z,1015.49
2017-10-26T03:49:16.785Z,1015.49
2017-10-26T03:49:57.394Z,1015.49
2017-10-26T03:50:37.844Z,1015.47
2017-10-26T03:51:18.293Z,1015.47
2017-10-26T03:51:58.619Z,1015.47
2017-10-26T03:52:39.106Z,1015.46
2017-10-26T03:53:19.562Z,1015.47
2017-10-26T03:54:00.018Z,1015.42
2017-10-26T03:54:40.571Z,1015.45
2017-10-26T03:55:21.040Z,1015.42
2017-10-26T03:56:01.510Z,1015.45
2017-10-26T03:56:42.146Z,1015.46
2017-10-26T03:57:22.740Z,1015.46
2017-10-26T03:58:03.206Z,1015.47
2017-10-26T03:58:43.663Z,1015.46
2017-10-26T03:59:24.022Z,1015.44
2017-10-26T04:00:04.555Z,1015.45
2017-10-26T04:00:45.129Z,1015.42
2017-10-26T04:01:25.756Z,1015.42
2017-10-26T04:41:42.933Z,1015.2
2017-10-26T04:42:35.933Z,1015.18
2017-10-26T04:43:27.939Z,1015.2
2017-10-26T04:44:20.517Z,1015.21
2017-10-26T04:45:13.169Z,1015.18
2017-10-26T04:46:05.471Z,1015.22
2017-10-26T04:46:58.989Z,1015.23
2017-10-26T04:47:53.370Z,1015.19
2017-10-26T04:48:48.047Z,1015.2
2017-10-26T04:49:41.942Z,1015.25
2017-10-26T04:50:34.475Z,1015.26
2017-10-26T04:51:27.410Z,1015.29
2017-10-26T04:52:20.555Z,1015.28
2017-10-26T04:53:13.225Z,1015.27
2017-10-26T04:54:06.068Z,1015.24
2017-10-26T04:54:59.727Z,1015.28
2017-10-26T04:57:36.298Z,1015.26
2017-10-26T04:58:29.879Z,1015.25
2017-10-26T04:59:24.007Z,1015.24
2017-10-26T05:00:16.441Z,1015.25
2017-10-26T05:01:08.660Z,1015.22
2017-10-26T05:02:00.714Z,1015.22
2017-10-26T05:02:52.808Z,1015.23
2017-10-26T05:03:46.360Z,1015.26
2017-10-26T05:04:39.043Z,1015.26
2017-10-26T05:05:31.164Z,1015.2
2017-10-26T05:06:22.601Z,1015.16
2017-10-26T05:07:15.081Z,1015.16
2017-10-26T05:08:07.443Z,1015.13
2017-10-26T05:08:56.422Z,1015.1
2017-10-26T05:09:36.921Z,1015.15
2017-10-26T05:10:17.454Z,1015.15
2017-10-26T05:10:57.777Z,1015.2
2017-10-26T05:11:38.183Z,1015.18
2017-10-26T05:12:18.596Z,1015.2
2017-10-26T05:12:58.997Z,1015.24
2017-10-26T05:13:39.383Z,1015.26
2017-10-26T05:14:19.843Z,1015.24
2017-10-26T05:15:00.270Z,1015.23
2017-10-26T05:15:40.675Z,1015.26
2017-10-26T05:16:21.098Z,1015.26
2017-10-26T05:17:01.480Z,1015.24
2017-10-26T05:17:41.918Z,1015.2
2017-10-26T05:18:22.353Z,1015.22
2017-10-26T05:19:02.811Z,1015.24
2017-10-26T05:19:43.239Z,1015.22
2017-10-26T05:20:23.612Z,1015.23
2017-10-26T05:21:03.997Z,1015.24
2017-10-26T05:21:44.512Z,1015.29
2017-10-26T05:22:24.946Z,1015.25
2017-10-26T05:23:05.414Z,1015.28
2017-10-26T05:23:45.812Z,1015.28
2017-10-26T05:24:26.238Z,1015.28
2017-10-26T05:25:06.660Z,1015.31
2017-10-26T05:25:47.128Z,1015.32
2017-10-26T05:26:27.517Z,1015.33
2017-10-26T05:27:07.881Z,1015.33
2017-10-26T05:27:48.294Z,1015.31
2017-10-26T05:28:28.722Z,1015.35
2017-10-26T05:29:09.084Z,1015.35
2017-10-26T05:29:49.488Z,1015.36
2017-10-26T05:30:29.868Z,1015.32
2017-10-26T05:31:10.360Z,1015.34
2017-10-26T05:31:50.794Z,1015.31
2017-10-26T05:32:31.204Z,1015.3
2017-10-26T05:33:11.670Z,1015.27
2017-10-26T05:33:52.207Z,1015.24
2017-10-26T05:34:32.657Z,1015.24
2017-10-26T05:35:13.013Z,1015.23
2017-10-26T05:35:53.424Z,1015.22
2017-10-26T05:36:33.874Z,1015.17
2017-10-26T05:37:14.286Z,1015.18
2017-10-26T05:37:54.625Z,1015.15
2017-10-26T05:38:35.136Z,1015.16
2017-10-26T05:39:15.695Z,1015.14
2017-10-26T05:39:56.237Z,1015.12
2017-10-26T05:40:36.737Z,1015.07
2017-10-26T05:41:17.137Z,1015.06
2017-10-26T05:41:57.506Z,1015.07
2017-10-26T05:42:38.029Z,1015.08
2017-10-26T05:43:18.429Z,1015.07
2017-10-26T05:43:58.853Z,1015.08
2017-10-26T05:44:39.384Z,1015.06
2017-10-26T05:45:19.802Z,1015.04
2017-10-26T05:46:00.188Z,1015.04
2017-10-26T05:46:40.621Z,1015.03
2017-10-26T05:47:21.576Z,1015.02
2017-10-26T05:48:02.291Z,1015.02
2017-10-26T05:48:42.827Z,1015.04
2017-10-26T05:49:23.255Z,1015.02
2017-10-26T05:50:03.686Z,1015.07
2017-10-26T05:50:44.208Z,1015.01
2017-10-26T05:51:24.621Z,1015.08
2017-10-26T05:52:05.349Z,1015.05
2017-10-26T05:52:45.759Z,1015.09
2017-10-26T05:53:26.413Z,1015.05
2017-10-26T05:54:06.862Z,1015.04
2017-10-26T05:54:47.287Z,1015.04
2017-10-26T05:55:27.655Z,1015
2017-10-26T05:56:08.088Z,1014.95
2017-10-26T05:56:49.264Z,1014.92
2017-10-26T05:57:29.694Z,1014.95
2017-10-26T05:58:10.405Z,1014.92
2017-10-26T05:58:51.788Z,1014.95
2017-10-26T05:59:32.086Z,1014.95
2017-10-26T06:00:12.578Z,1014.97
2017-10-26T06:00:53.211Z,1014.91
2017-10-26T06:01:33.661Z,1014.89
2017-10-26T06:02:14.123Z,1014.92
2017-10-26T06:02:54.527Z,1014.94
2017-10-26T06:03:35.105Z,1015.02
2017-10-26T06:04:15.462Z,1015.01
2017-10-26T06:04:56.214Z,1014.99
2017-10-26T06:05:36.864Z,1015
2017-10-26T06:06:17.119Z,1015.01
2017-10-26T06:06:57.635Z,1014.97
2017-10-26T06:07:38.173Z,1014.97
2017-10-26T06:08:18.571Z,1014.96
2017-10-26T06:08:58.906Z,1014.97
2017-10-26T06:09:39.356Z,1014.95
2017-10-26T06:10:19.768Z,1015.01
2017-10-26T06:11:00.235Z,1015.01
2017-10-26T06:11:40.546Z,1014.99
2017-10-26T06:12:21.020Z,1014.96
2017-10-26T06:13:01.493Z,1014.97
2017-10-26T06:13:41.908Z,1014.99
2017-10-26T06:14:22.374Z,1014.98
2017-10-26T06:15:02.896Z,1014.97
2017-10-26T06:15:43.290Z,1014.93
2017-10-26T06:16:23.831Z,1014.97
2017-10-26T06:17:04.355Z,1014.96
2017-10-26T06:17:44.910Z,1014.96
2017-10-26T06:18:25.388Z,1014.96
2017-10-26T06:19:05.944Z,1014.95
2017-10-26T06:19:46.512Z,1014.94
2017-10-26T06:20:26.897Z,1014.96
2017-10-26T06:21:07.329Z,1014.93
2017-10-26T06:21:47.972Z,1014.9
2017-10-26T06:22:28.432Z,1014.9
2017-10-26T06:23:09.548Z,1014.85
2017-10-26T06:23:49.685Z,1014.88
2017-10-26T06:24:30.824Z,1014.85
2017-10-26T06:25:11.362Z,1014.83
2017-10-26T06:25:52.262Z,1014.81
2017-10-26T06:26:32.645Z,1014.89
2017-10-26T06:27:13.350Z,1014.89
2017-10-26T06:27:53.588Z,1014.91
2017-10-26T06:28:34.553Z,1014.99
2017-10-26T06:29:15.887Z,1015.01
2017-10-26T06:29:56.411Z,1015.01
2017-10-26T06:30:36.827Z,1015.03
2017-10-26T06:31:17.572Z,1015.08
2017-10-26T06:31:58.278Z,1015.08
2017-10-26T06:32:39.543Z,1015.1
2017-10-26T06:33:20.492Z,1015.15
2017-10-26T06:34:01.164Z,1015.14
2017-10-26T06:34:41.554Z,1015.12
2017-10-26T06:35:22.822Z,1015.14
2017-10-26T06:36:04.474Z,1015.16
2017-10-26T06:39:13.937Z,1015.14
2017-10-26T06:40:07.951Z,1015.18
2017-10-26T06:41:03.329Z,1015.17
2017-10-26T06:41:56.299Z,1015.16
2017-10-26T06:42:50.802Z,1015.23
2017-10-26T06:43:43.089Z,1015.18
2017-10-26T06:44:35.128Z,1015.21
2017-10-26T06:47:08.140Z,1015.22
2017-10-26T06:48:02.368Z,1015.21
2017-10-26T06:48:54.362Z,1015.23
2017-10-26T06:49:38.608Z,1015.28
2017-10-26T06:50:19.139Z,1015.27
2017-10-26T06:50:59.525Z,1015.28
2017-10-26T06:51:40.149Z,1015.31
2017-10-26T06:52:21.295Z,1015.25
2017-10-26T06:53:03.035Z,1015.31
2017-10-26T06:53:43.475Z,1015.27
2017-10-26T06:54:24.789Z,1015.33
2017-10-26T06:55:05.988Z,1015.37
2017-10-26T06:55:47.338Z,1015.4
2017-10-26T06:56:28.029Z,1015.37
2017-10-26T06:57:10.114Z,1015.42
2017-10-26T06:57:49.801Z,1015.36
2017-10-26T06:58:30.655Z,1015.4
2017-10-26T06:59:11.220Z,1015.41
2017-10-26T06:59:51.542Z,1015.41
2017-10-26T07:00:31.977Z,1015.37
2017-10-26T07:01:12.468Z,1015.38
2017-10-26T07:01:52.954Z,1015.41
2017-10-26T07:02:33.395Z,1015.38
2017-10-26T07:03:13.822Z,1015.38
2017-10-26T07:03:54.844Z,1015.34
2017-10-26T07:04:35.288Z,1015.35
2017-10-26T07:05:15.705Z,1015.35
2017-10-26T07:05:56.110Z,1015.33
2017-10-26T07:06:36.566Z,1015.36
2017-10-26T07:07:17.160Z,1015.36
2017-10-26T07:07:57.620Z,1015.38
2017-10-26T07:08:38.067Z,1015.36
2017-10-26T07:09:18.505Z,1015.34
2017-10-26T07:09:58.910Z,1015.34
2017-10-26T07:10:39.433Z,1015.38
2017-10-26T07:11:19.860Z,1015.35
2017-10-26T07:12:00.316Z,1015.33
2017-10-26T07:12:40.980Z,1015.36
2017-10-26T07:13:21.435Z,1015.36
2017-10-26T07:14:01.969Z,1015.36
2017-10-26T07:14:42.545Z,1015.36
2017-10-26T07:15:23.079Z,1015.4
2017-10-26T07:16:03.521Z,1015.36
2017-10-26T07:16:44.163Z,1015.39
2017-10-26T07:17:24.829Z,1015.38
2017-10-26T07:18:05.590Z,1015.38
2017-10-26T07:18:46.216Z,1015.4
2017-10-26T07:19:26.725Z,1015.38
2017-10-26T07:20:07.594Z,1015.39
2017-10-26T07:20:48.805Z,1015.37
2017-10-26T07:21:28.912Z,1015.33
2017-10-26T07:22:09.293Z,1015.38
2017-10-26T07:22:49.721Z,1015.35
2017-10-26T07:23:30.804Z,1015.4
2017-10-26T07:24:10.837Z,1015.39
2017-10-26T07:25:06.076Z,1015.38
2017-10-26T07:25:46.679Z,1015.38
2017-10-26T07:26:41.927Z,1015.41
2017-10-26T07:27:22.641Z,1015.43
2017-10-26T07:28:03.098Z,1015.43
2017-10-26T07:28:43.521Z,1015.42
2017-10-26T07:29:24.864Z,1015.41
2017-10-26T07:30:04.978Z,1015.46
2017-10-26T07:30:45.332Z,1015.46
2017-10-26T07:31:25.767Z,1015.44
2017-10-26T07:32:06.296Z,1015.48
2017-10-26T07:32:46.985Z,1015.49
2017-10-26T07:33:27.521Z,1015.46
2017-10-26T07:34:08.087Z,1015.48
2017-10-26T07:34:48.560Z,1015.47
2017-10-26T07:35:29.152Z,1015.46
2017-10-26T07:36:09.568Z,1015.49
2017-10-26T07:36:49.935Z,1015.46
2017-10-26T07:37:30.328Z,1015.48
2017-10-26T07:38:10.941Z,1015.54
2017-10-26T07:38:51.521Z,1015.51
2017-10-26T07:39:32.131Z,1015.52
2017-10-26T07:40:12.705Z,1015.51
2017-10-26T07:40:54.767Z,1015.51
2017-10-26T07:41:35.325Z,1015.51
2017-10-26T07:42:15.833Z,1015.53
2017-10-26T07:42:57.267Z,1015.55
2017-10-26T07:43:36.973Z,1015.54
2017-10-26T07:44:17.387Z,1015.56
2017-10-26T07:44:57.997Z,1015.58
2017-10-26T07:45:53.182Z,1015.66
2017-10-26T07:46:33.634Z,1015.58
2017-10-26T07:47:14.343Z,1015.56
2017-10-26T07:47:54.759Z,1015.58
2017-10-26T07:48:35.570Z,1015.6
2017-10-26T07:49:16.348Z,1015.58
2017-10-26T07:49:57.018Z,1015.58
2017-10-26T07:50:37.539Z,1015.57
2017-10-26T07:51:17.941Z,1015.55
2017-10-26T07:51:58.492Z,1015.53
2017-10-26T07:52:38.864Z,1015.55
2017-10-26T07:53:19.208Z,1015.54
2017-10-26T07:53:59.795Z,1015.55
2017-10-26T07:54:40.282Z,1015.53
2017-10-26T07:55:20.694Z,1015.51
2017-10-26T07:56:01.286Z,1015.48
2017-10-26T07:56:41.846Z,1015.5
2017-10-26T07:57:22.207Z,1015.47
2017-10-26T07:58:02.597Z,1015.46
2017-10-26T07:58:43.772Z,1015.48
2017-10-26T07:59:23.593Z,1015.46
2017-10-26T08:00:03.991Z,1015.46
2017-10-26T08:00:44.533Z,1015.41
2017-10-26T08:01:24.980Z,1015.45
2017-10-26T08:02:05.672Z,1015.41
2017-10-26T08:02:46.510Z,1015.39
2017-10-26T08:03:27.898Z,1015.38
2017-10-26T08:04:08.282Z,1015.37
2017-10-26T08:04:48.743Z,1015.4
2017-10-26T08:05:30.904Z,1015.38
2017-10-26T08:06:12.867Z,1015.41
2017-10-26T08:06:53.389Z,1015.41
2017-10-26T08:07:34.142Z,1015.4
2017-10-26T08:08:14.421Z,1015.43
2017-10-26T08:08:55.153Z,1015.42
2017-10-26T08:09:35.946Z,1015.43
2017-10-26T08:10:16.539Z,1015.47
2017-10-26T08:10:57.776Z,1015.46
2017-10-26T08:11:37.987Z,1015.46
2017-10-26T08:12:18.762Z,1015.49
2017-10-26T08:12:59.817Z,1015.49
2017-10-26T08:13:40.007Z,1015.47
2017-10-26T08:14:20.561Z,1015.46
2017-10-26T08:15:01.262Z,1015.5
2017-10-26T08:15:41.829Z,1015.5
2017-10-26T08:16:22.241Z,1015.47
2017-10-26T08:17:03.226Z,1015.49
2017-10-26T08:17:43.766Z,1015.47
2017-10-26T08:18:24.111Z,1015.5
2017-10-26T08:19:04.664Z,1015.44
2017-10-26T08:19:45.152Z,1015.45
2017-10-26T08:20:25.572Z,1015.47
2017-10-26T08:21:06.133Z,1015.47
2017-10-26T08:21:46.634Z,1015.47
2017-10-26T08:22:27.796Z,1015.48
2017-10-26T08:23:07.777Z,1015.5
2017-10-26T08:23:48.392Z,1015.51
2017-10-26T08:24:28.787Z,1015.51
2017-10-26T08:25:09.252Z,1015.53
2017-10-26T08:25:50.671Z,1015.54
2017-10-26T08:26:31.070Z,1015.48
2017-10-26T08:27:11.703Z,1015.52
2017-10-26T08:27:53.090Z,1015.5
2017-10-26T08:28:33.628Z,1015.51
2017-10-26T08:29:13.967Z,1015.54
2017-10-26T08:29:54.452Z,1015.53
2017-10-26T08:30:36.320Z,1015.54
2017-10-26T08:31:17.037Z,1015.52
2017-10-26T08:31:59.082Z,1015.54
2017-10-26T08:32:41.590Z,1015.53
2017-10-26T08:33:22.280Z,1015.52
2017-10-26T08:34:02.707Z,1015.52
2017-10-26T08:34:44.416Z,1015.51
2017-10-26T08:35:24.951Z,1015.55
2017-10-26T08:36:06.311Z,1015.52
2017-10-26T08:36:46.673Z,1015.53
2017-10-26T08:37:27.367Z,1015.54
2017-10-26T08:38:08.167Z,1015.59
2017-10-26T08:38:49.221Z,1015.58
2017-10-26T08:39:55.797Z,1015.63
2017-10-26T08:48:55.875Z,1015.63
2017-10-26T08:49:52.428Z,1015.65
2017-10-26T08:50:56.961Z,1015.63
2017-10-26T08:51:54.486Z,1015.62
2017-10-26T08:52:53.368Z,1015.58
2017-10-26T08:53:49.422Z,1015.58
2017-10-26T08:58:58.370Z,1015.63
2017-10-26T08:59:55.221Z,1015.64
2017-10-26T09:00:52.349Z,1015.63
2017-10-26T09:01:51.568Z,1015.63
2017-10-26T09:02:50.208Z,1015.6
2017-10-26T09:03:44.580Z,1015.63
2017-10-26T09:04:41.380Z,1015.65
2017-10-26T09:07:35.128Z,1015.67
2017-10-26T09:09:45.458Z,1015.68
2017-10-26T09:10:44.734Z,1015.7
2017-10-26T09:11:40.881Z,1015.68
2017-10-26T09:12:35.516Z,1015.69
2017-10-26T09:13:28.504Z,1015.7
2017-10-26T09:14:23.014Z,1015.7
2017-10-26T09:15:17.439Z,1015.76
2017-10-26T09:16:17.390Z,1015.7
2017-10-26T09:17:15.486Z,1015.71
2017-10-26T09:18:13.430Z,1015.69
2017-10-26T09:19:08.258Z,1015.7
2017-10-26T09:21:03.441Z,1015.65
2017-10-26T09:21:44.043Z,1015.68
2017-10-26T09:22:24.487Z,1015.63
2017-10-26T09:23:05.145Z,1015.61
2017-10-26T09:23:45.947Z,1015.62
2017-10-26T09:24:26.693Z,1015.63
2017-10-26T09:25:07.152Z,1015.61
2017-10-26T09:25:47.594Z,1015.57
2017-10-26T09:26:28.838Z,1015.61
2017-10-26T09:27:09.326Z,1015.59
2017-10-26T09:27:50.032Z,1015.57
2017-10-26T09:28:30.701Z,1015.6
2017-10-26T09:29:11.349Z,1015.54
2017-10-26T09:29:51.582Z,1015.54
2017-10-26T09:30:32.344Z,1015.53
2017-10-26T09:31:12.797Z,1015.54
2017-10-26T09:31:53.539Z,1015.51
2017-10-26T09:32:33.882Z,1015.52
2017-10-26T09:33:14.600Z,1015.52
2017-10-26T09:33:55.061Z,1015.53
2017-10-26T09:34:35.462Z,1015.55
2017-10-26T09:35:15.949Z,1015.56
2017-10-26T09:35:56.291Z,1015.54